createdAt,value
2022-11-16T00:00:17.911Z,57.90
2022-11-16T00:06:50.732Z,57.82
2022-11-16T00:09:45.782Z,57.79
2022-11-16T00:12:40.586Z,57.77
2022-11-16T00:15:35.832Z,57.75
2022-11-16T00:18:30.870Z,57.72
2022-11-16T00:21:26.062Z,57.70
2022-11-16T00:24:21.921Z,57.70
2022-11-16T00:27:16.722Z,57.69
2022-11-16T00:30:13.927Z,57.69
2022-11-16T00:33:09.217Z,57.70
2022-11-16T00:36:05.913Z,57.73
2022-11-16T00:39:00.528Z,57.71
2022-11-16T00:41:55.424Z,57.71
2022-11-16T00:44:50.120Z,57.72
2022-11-16T00:47:45.327Z,57.71
2022-11-16T00:50:40.006Z,57.73
2022-11-16T00:53:35.110Z,57.73
2022-11-16T00:56:30.376Z,57.75
2022-11-16T00:59:25.240Z,57.75
2022-11-16T01:02:22.767Z,57.75
2022-11-16T01:05:17.553Z,57.74
2022-11-16T01:08:13.323Z,57.74
2022-11-16T01:11:26.141Z,57.75
2022-11-16T01:14:20.829Z,57.75
2022-11-16T01:17:16.021Z,57.74
2022-11-16T01:20:15.922Z,57.75
2022-11-16T01:23:10.572Z,57.72
2022-11-16T01:26:05.540Z,57.73
2022-11-16T01:29:04.273Z,57.75
2022-11-16T01:32:02.956Z,57.74
2022-11-16T01:34:58.942Z,57.73
2022-11-16T01:38:00.000Z,57.73
2022-11-16T01:40:55.305Z,57.72
2022-11-16T01:44:00.803Z,57.74
2022-11-16T01:47:02.743Z,57.75
2022-11-16T01:49:58.059Z,57.73
2022-11-16T01:53:00.878Z,57.71
2022-11-16T01:56:00.678Z,57.71
2022-11-16T01:59:00.927Z,57.73
2022-11-16T02:01:55.992Z,57.74
2022-11-16T02:04:50.251Z,57.72
2022-11-16T02:08:28.716Z,57.70
2022-11-16T02:11:41.682Z,57.72
2022-11-16T02:14:49.897Z,57.73
2022-11-16T02:17:52.803Z,57.75
2022-11-16T02:21:18.240Z,57.76
2022-11-16T02:24:40.672Z,57.77
2022-11-16T02:28:10.003Z,57.77
2022-11-16T02:31:06.946Z,57.76
2022-11-16T02:34:01.901Z,57.73
2022-11-16T02:36:57.476Z,57.74
2022-11-16T02:39:54.470Z,57.75
2022-11-16T02:42:51.408Z,57.74
2022-11-16T02:45:49.608Z,57.75
2022-11-16T02:48:48.534Z,57.79
2022-11-16T02:51:43.524Z,57.80
2022-11-16T02:54:41.689Z,57.80
2022-11-16T02:57:51.637Z,57.79
2022-11-16T03:00:49.629Z,57.78
2022-11-16T03:03:49.956Z,57.80
2022-11-16T03:06:44.252Z,57.78
2022-11-16T03:09:39.573Z,57.78
2022-11-16T03:12:37.828Z,57.78
2022-11-16T03:15:32.619Z,57.78
2022-11-16T03:18:29.172Z,57.78
2022-11-16T03:21:31.982Z,57.77
2022-11-16T03:24:28.751Z,57.76
2022-11-16T03:27:28.836Z,57.73
2022-11-16T03:30:25.676Z,57.72
2022-11-16T03:33:24.565Z,57.73
2022-11-16T03:36:21.889Z,57.74
2022-11-16T03:39:18.821Z,57.74
2022-11-16T03:42:15.836Z,57.74
2022-11-16T03:45:12.962Z,57.72
2022-11-16T03:48:09.242Z,57.74
2022-11-16T03:51:03.703Z,57.75
2022-11-16T03:53:58.213Z,57.74
2022-11-16T03:56:52.979Z,57.74
2022-11-16T03:59:48.650Z,57.75
2022-11-16T04:02:43.780Z,57.73
2022-11-16T04:06:01.952Z,57.73
2022-11-16T04:09:14.487Z,57.71
2022-11-16T04:12:28.198Z,57.72
2022-11-16T04:15:40.095Z,57.72
2022-11-16T04:18:52.864Z,57.73
2022-11-16T04:22:06.116Z,57.71
2022-11-16T04:25:06.409Z,57.72
2022-11-16T04:28:16.407Z,57.72
2022-11-16T04:31:37.056Z,57.74
2022-11-16T04:34:52.960Z,57.73
2022-11-16T04:37:52.805Z,57.72
2022-11-16T04:40:54.726Z,57.75
2022-11-16T04:43:51.047Z,57.74
2022-11-16T04:47:03.689Z,57.74
2022-11-16T04:49:58.335Z,57.75
2022-11-16T04:52:53.148Z,57.77
2022-11-16T04:55:50.579Z,57.76
2022-11-16T04:58:46.241Z,57.76
2022-11-16T05:01:58.229Z,57.75
2022-11-16T05:04:52.564Z,57.75
2022-11-16T05:07:47.509Z,57.73
2022-11-16T05:10:49.386Z,57.75
2022-11-16T05:13:43.828Z,57.75
2022-11-16T05:16:38.543Z,57.78
2022-11-16T05:19:50.725Z,57.75
2022-11-16T05:22:45.843Z,57.73
2022-11-16T05:25:40.554Z,57.75
2022-11-16T05:28:37.940Z,57.77
2022-11-16T05:31:36.361Z,57.78
2022-11-16T05:34:35.707Z,57.78
2022-11-16T05:37:30.716Z,57.78
2022-11-16T05:40:25.344Z,57.79
2022-11-16T05:43:25.045Z,57.80
2022-11-16T05:46:28.210Z,57.81
2022-11-16T05:49:23.742Z,57.82
2022-11-16T05:52:18.978Z,57.82
2022-11-16T05:55:14.260Z,57.82
2022-11-16T05:58:10.834Z,57.81
2022-11-16T06:01:05.865Z,57.80
2022-11-16T06:04:01.831Z,57.80
2022-11-16T06:06:56.370Z,57.81
2022-11-16T06:09:54.061Z,57.82
2022-11-16T06:12:48.909Z,57.82
2022-11-16T06:18:52.857Z,57.85
2022-11-16T06:21:47.894Z,57.85
2022-11-16T06:24:45.412Z,57.84
2022-11-16T06:27:40.640Z,57.83
2022-11-16T06:30:36.205Z,57.83
2022-11-16T06:33:33.788Z,57.76
2022-11-16T06:36:29.815Z,57.76
2022-11-16T06:39:25.031Z,57.79
2022-11-16T06:42:19.852Z,57.78
2022-11-16T06:45:14.987Z,57.79
2022-11-16T06:48:13.583Z,57.75
2022-11-16T06:51:08.613Z,57.73
2022-11-16T06:54:03.046Z,57.70
2022-11-16T06:56:58.499Z,57.58
2022-11-16T06:59:54.118Z,56.64
2022-11-16T07:02:48.468Z,55.25
2022-11-16T07:05:45.185Z,54.30
2022-11-16T07:08:42.213Z,54.10
2022-11-16T07:11:38.087Z,54.44
2022-11-16T07:14:32.567Z,55.18
2022-11-16T07:17:27.131Z,55.24
2022-11-16T07:20:22.962Z,55.23
2022-11-16T07:23:18.267Z,55.15
2022-11-16T07:26:13.562Z,55.10
2022-11-16T07:29:19.704Z,55.08
2022-11-16T07:32:32.083Z,54.98
2022-11-16T07:35:34.506Z,54.75
2022-11-16T07:38:29.975Z,54.89
2022-11-16T07:41:25.497Z,54.88
2022-11-16T07:44:35.462Z,54.82
2022-11-16T07:47:38.090Z,54.79
2022-11-16T07:50:35.657Z,54.77
2022-11-16T07:53:30.922Z,54.63
2022-11-16T07:56:25.755Z,54.69
2022-11-16T07:59:20.793Z,54.46
2022-11-16T08:02:17.070Z,54.90
2022-11-16T08:05:13.137Z,55.23
2022-11-16T08:08:07.121Z,55.92
2022-11-16T08:11:06.296Z,55.89
2022-11-16T08:14:01.673Z,56.19
2022-11-16T08:16:56.830Z,56.30
2022-11-16T08:19:53.804Z,56.58
2022-11-16T08:22:49.868Z,56.75
2022-11-16T08:25:45.816Z,57.03
2022-11-16T08:28:40.931Z,57.36
2022-11-16T08:31:36.148Z,57.80
2022-11-16T08:34:36.452Z,58.15
2022-11-16T08:37:32.491Z,58.17
2022-11-16T08:40:27.527Z,58.01
2022-11-16T08:43:22.873Z,58.04
2022-11-16T08:46:17.847Z,58.00
2022-11-16T08:49:16.004Z,58.05
2022-11-16T08:52:10.835Z,58.04
2022-11-16T08:55:06.666Z,58.00
2022-11-16T08:58:02.157Z,57.98
2022-11-16T09:00:56.040Z,57.96
2022-11-16T09:03:50.963Z,57.84
2022-11-16T09:06:45.961Z,57.86
2022-11-16T09:09:40.633Z,57.87
2022-11-16T09:12:35.668Z,57.87
2022-11-16T09:15:30.535Z,57.93
2022-11-16T09:18:25.425Z,58.05
2022-11-16T09:21:23.605Z,58.14
2022-11-16T09:24:18.316Z,58.21
2022-11-16T09:27:13.560Z,58.12
2022-11-16T09:30:11.872Z,58.14
2022-11-16T09:33:06.973Z,58.17
2022-11-16T09:36:07.122Z,58.25
2022-11-16T09:39:32.232Z,58.21
2022-11-16T09:42:32.888Z,58.22
2022-11-16T09:45:32.419Z,58.26
2022-11-16T09:48:27.052Z,58.34
2022-11-16T09:51:22.428Z,58.34
2022-11-16T09:54:19.773Z,58.38
2022-11-16T09:57:16.424Z,58.28
2022-11-16T10:00:19.611Z,58.36
2022-11-16T10:03:16.256Z,58.43
2022-11-16T10:06:16.354Z,58.42
2022-11-16T10:09:14.139Z,58.34
2022-11-16T10:12:16.365Z,58.44
2022-11-16T10:15:50.489Z,58.49
2022-11-16T10:18:56.717Z,58.58
2022-11-16T10:21:56.360Z,58.75
2022-11-16T10:24:59.414Z,58.81
2022-11-16T10:28:21.590Z,58.76
2022-11-16T10:31:20.888Z,58.64
2022-11-16T10:34:17.740Z,58.63
2022-11-16T10:37:14.421Z,58.55
2022-11-16T10:40:21.138Z,58.39
2022-11-16T10:43:19.317Z,58.28
2022-11-16T10:46:18.725Z,58.22
2022-11-16T10:49:16.782Z,58.15
2022-11-16T10:52:11.854Z,58.14
2022-11-16T10:55:07.764Z,58.09
2022-11-16T10:58:04.442Z,58.03
2022-11-16T11:01:00.726Z,57.99
2022-11-16T11:03:55.940Z,57.96
2022-11-16T11:06:52.677Z,57.95
2022-11-16T11:09:47.461Z,57.91
2022-11-16T11:12:42.899Z,57.88
2022-11-16T11:15:37.567Z,57.85
2022-11-16T11:18:32.392Z,57.82
2022-11-16T11:21:27.831Z,57.76
2022-11-16T11:24:44.010Z,57.73
2022-11-16T11:27:38.902Z,57.68
2022-11-16T11:30:33.761Z,57.60
2022-11-16T11:33:29.986Z,57.67
2022-11-16T11:36:26.248Z,57.71
2022-11-16T11:39:38.202Z,57.74
2022-11-16T11:42:33.224Z,57.79
2022-11-16T11:45:32.638Z,57.77
2022-11-16T11:48:35.818Z,57.73
2022-11-16T11:51:34.237Z,57.72
2022-11-16T11:54:30.616Z,57.64
2022-11-16T11:57:26.711Z,57.56
2022-11-16T12:00:24.000Z,57.43
2022-11-16T12:03:44.717Z,57.37
2022-11-16T12:06:44.144Z,57.34
2022-11-16T12:09:42.274Z,57.19
2022-11-16T12:12:46.759Z,56.91
2022-11-16T12:15:55.404Z,56.91
2022-11-16T12:19:05.581Z,56.69
2022-11-16T12:22:10.171Z,56.48
2022-11-16T12:25:16.341Z,56.65
2022-11-16T12:28:21.763Z,56.69
2022-11-16T12:31:47.823Z,56.33
2022-11-16T12:34:57.231Z,56.62
2022-11-16T12:37:59.352Z,56.78
2022-11-16T12:41:05.517Z,56.93
2022-11-16T12:44:02.400Z,56.99
2022-11-16T12:47:03.829Z,56.96
2022-11-16T12:50:14.232Z,57.09
2022-11-16T12:53:23.618Z,57.20
2022-11-16T12:56:25.159Z,57.17
2022-11-16T12:59:32.730Z,57.12
2022-11-16T13:02:56.613Z,57.20
2022-11-16T13:06:03.320Z,57.35
2022-11-16T13:09:04.588Z,57.45
2022-11-16T13:12:02.358Z,57.50
2022-11-16T13:14:57.975Z,57.56
2022-11-16T13:17:57.475Z,57.53
2022-11-16T13:20:56.205Z,57.58
2022-11-16T13:24:00.936Z,57.63
2022-11-16T13:27:02.342Z,57.69
2022-11-16T13:30:00.757Z,57.64
2022-11-16T13:33:08.411Z,57.75
2022-11-16T13:36:17.035Z,57.82
2022-11-16T13:39:15.789Z,57.80
2022-11-16T13:42:17.109Z,57.90
2022-11-16T13:45:19.653Z,57.96
2022-11-16T13:48:22.460Z,58.01
2022-11-16T13:51:23.111Z,58.06
2022-11-16T13:54:44.424Z,58.19
2022-11-16T13:57:34.931Z,58.30
2022-11-16T14:00:33.547Z,58.52
2022-11-16T14:03:38.458Z,58.61
2022-11-16T14:07:01.568Z,58.86
2022-11-16T14:09:56.207Z,59.13
2022-11-16T14:13:01.080Z,59.39
2022-11-16T14:15:58.068Z,59.58
2022-11-16T14:18:53.285Z,59.89
2022-11-16T14:21:51.059Z,60.19
2022-11-16T14:24:47.954Z,60.59
2022-11-16T14:27:45.465Z,60.85
2022-11-16T14:30:57.911Z,61.19
2022-11-16T14:33:55.372Z,61.19
2022-11-16T14:36:50.836Z,61.20
2022-11-16T14:39:46.089Z,61.17
2022-11-16T14:43:14.930Z,61.11
2022-11-16T14:46:04.665Z,60.85
2022-11-16T14:49:00.571Z,60.92
2022-11-16T14:51:57.368Z,60.75
2022-11-16T14:54:55.986Z,60.55
2022-11-16T14:57:50.808Z,60.36
2022-11-16T15:00:45.681Z,60.37
2022-11-16T15:03:47.529Z,60.58
2022-11-16T15:06:46.745Z,60.69
2022-11-16T15:09:45.236Z,60.63
2022-11-16T15:12:46.011Z,60.41
2022-11-16T15:15:40.814Z,60.31
2022-11-16T15:18:35.618Z,60.17
2022-11-16T15:21:30.491Z,60.18
2022-11-16T15:24:31.735Z,60.18
2022-11-16T15:27:37.922Z,60.13
2022-11-16T15:30:34.558Z,59.76
2022-11-16T15:33:31.090Z,59.59
2022-11-16T15:36:40.190Z,59.53
2022-11-16T15:39:37.252Z,59.59
2022-11-16T15:42:32.421Z,59.68
2022-11-16T15:45:28.140Z,59.67
2022-11-16T15:48:25.373Z,59.55
2022-11-16T15:51:24.359Z,59.57
2022-11-16T15:54:26.310Z,59.55
2022-11-16T15:57:21.209Z,59.65
2022-11-16T16:00:29.473Z,59.75
2022-11-16T16:03:26.356Z,59.71
2022-11-16T16:06:49.483Z,59.59
2022-11-16T16:09:44.727Z,59.46
2022-11-16T16:12:47.521Z,59.18
2022-11-16T16:15:43.440Z,58.94
2022-11-16T16:18:42.113Z,58.93
2022-11-16T16:21:46.976Z,58.88
2022-11-16T16:24:46.968Z,58.98
2022-11-16T16:27:43.351Z,58.93
2022-11-16T16:30:39.453Z,58.75
2022-11-16T16:33:32.944Z,58.78
2022-11-16T16:36:28.105Z,58.75
2022-11-16T16:39:22.766Z,58.63
2022-11-16T16:42:18.250Z,58.61
2022-11-16T16:45:18.257Z,58.51
2022-11-16T16:48:13.019Z,58.56
2022-11-16T16:51:10.783Z,58.44
2022-11-16T16:54:05.572Z,58.39
2022-11-16T16:57:01.474Z,58.27
2022-11-16T16:59:56.589Z,58.14
2022-11-16T17:02:51.242Z,58.26
2022-11-16T17:05:45.979Z,58.27
2022-11-16T17:08:40.860Z,58.30
2022-11-16T17:11:35.622Z,58.19
2022-11-16T17:14:30.250Z,58.16
2022-11-16T17:17:25.564Z,58.00
2022-11-16T17:20:21.381Z,58.19
2022-11-16T17:23:18.355Z,58.12
2022-11-16T17:26:13.165Z,58.08
2022-11-16T17:29:08.262Z,57.93
2022-11-16T17:32:03.019Z,57.91
2022-11-16T17:34:57.745Z,57.99
2022-11-16T17:37:52.832Z,58.00
2022-11-16T17:40:47.644Z,57.85
2022-11-16T17:43:44.975Z,57.96
2022-11-16T17:46:41.074Z,57.88
2022-11-16T17:49:34.144Z,57.71
2022-11-16T17:52:28.908Z,57.81
2022-11-16T17:55:23.764Z,57.80
2022-11-16T17:58:18.882Z,57.70
2022-11-16T18:01:14.330Z,57.79
2022-11-16T18:04:09.516Z,57.83
2022-11-16T18:07:04.381Z,57.81
2022-11-16T18:09:59.190Z,57.79
2022-11-16T18:12:54.955Z,57.84
2022-11-16T18:15:50.510Z,57.82
2022-11-16T18:18:45.374Z,57.84
2022-11-16T18:21:44.149Z,57.81
2022-11-16T18:24:38.888Z,57.65
2022-11-16T18:27:33.612Z,57.48
2022-11-16T18:30:28.531Z,57.55
2022-11-16T18:33:27.778Z,57.54
2022-11-16T18:36:25.588Z,57.44
2022-11-16T18:39:20.694Z,57.38
2022-11-16T18:42:16.292Z,57.38
2022-11-16T18:45:13.338Z,57.32
2022-11-16T18:48:08.269Z,57.35
2022-11-16T18:51:07.586Z,57.25
2022-11-16T18:54:02.547Z,57.29
2022-11-16T18:56:57.659Z,57.13
2022-11-16T18:59:52.352Z,57.15
2022-11-16T19:02:46.981Z,57.29
2022-11-16T19:05:41.765Z,57.26
2022-11-16T19:08:36.631Z,57.26
2022-11-16T19:11:31.967Z,57.24
2022-11-16T19:14:26.672Z,57.04
2022-11-16T19:17:24.699Z,57.11
2022-11-16T19:20:19.993Z,57.31
2022-11-16T19:23:14.736Z,57.32
2022-11-16T19:26:10.486Z,57.32
2022-11-16T19:29:05.637Z,57.28
2022-11-16T19:32:01.361Z,57.12
2022-11-16T19:34:56.158Z,57.19
2022-11-16T19:37:50.870Z,57.00
2022-11-16T19:40:45.569Z,57.07
2022-11-16T19:43:40.428Z,57.09
2022-11-16T19:46:36.007Z,57.02
2022-11-16T19:49:30.795Z,56.98
2022-11-16T19:52:25.627Z,56.98
2022-11-16T19:55:20.712Z,56.87
2022-11-16T19:58:15.486Z,56.91
2022-11-16T20:01:13.110Z,56.93
2022-11-16T20:04:09.379Z,56.98
2022-11-16T20:07:05.711Z,56.99
2022-11-16T20:10:00.421Z,57.03
2022-11-16T20:12:56.846Z,57.03
2022-11-16T20:15:51.675Z,57.07
2022-11-16T20:18:46.865Z,57.07
2022-11-16T20:21:42.672Z,57.06
2022-11-16T20:24:37.455Z,56.98
2022-11-16T20:27:32.717Z,56.98
2022-11-16T20:30:27.339Z,56.99
2022-11-16T20:33:22.134Z,56.97
2022-11-16T20:36:17.041Z,56.85
2022-11-16T20:39:14.466Z,56.89
2022-11-16T20:42:09.472Z,56.91
2022-11-16T20:45:04.541Z,56.87
2022-11-16T20:47:59.592Z,56.85
2022-11-16T20:50:57.942Z,56.85
2022-11-16T20:53:53.225Z,56.85
2022-11-16T20:56:50.468Z,56.82
2022-11-16T20:59:45.310Z,56.79
2022-11-16T21:02:39.935Z,56.79
2022-11-16T21:05:34.970Z,56.73
2022-11-16T21:08:30.876Z,56.75
2022-11-16T21:11:28.132Z,56.69
2022-11-16T21:14:23.135Z,56.70
2022-11-16T21:17:17.712Z,56.73
2022-11-16T21:20:27.432Z,56.67
2022-11-16T21:23:22.418Z,56.70
2022-11-16T21:26:17.803Z,56.66
2022-11-16T21:29:12.730Z,56.63
2022-11-16T21:32:08.462Z,56.61
2022-11-16T21:35:03.153Z,56.57
2022-11-16T21:37:57.809Z,56.46
2022-11-16T21:40:52.660Z,56.54
2022-11-16T21:43:47.423Z,56.40
2022-11-16T21:46:42.124Z,56.24
2022-11-16T21:49:43.250Z,56.09
2022-11-16T21:52:51.435Z,56.04
2022-11-16T21:55:46.172Z,55.93
2022-11-16T21:58:41.284Z,55.80
2022-11-16T22:01:49.677Z,55.82
2022-11-16T22:05:02.239Z,55.82
2022-11-16T22:07:57.000Z,55.83
2022-11-16T22:10:55.500Z,55.75
2022-11-16T22:13:50.548Z,55.78
2022-11-16T22:16:45.012Z,55.90
2022-11-16T22:19:39.916Z,55.87
2022-11-16T22:22:34.511Z,55.90
2022-11-16T22:25:29.242Z,55.86
2022-11-16T22:28:24.061Z,55.92
2022-11-16T22:31:19.930Z,55.99
2022-11-16T22:34:14.620Z,56.04
2022-11-16T22:37:09.368Z,56.00
2022-11-16T22:40:04.265Z,55.96
2022-11-16T22:43:02.083Z,55.97
2022-11-16T22:46:01.424Z,55.98
2022-11-16T22:48:56.179Z,56.01
2022-11-16T22:51:50.961Z,56.01
2022-11-16T22:54:45.776Z,56.05
2022-11-16T22:57:40.799Z,56.01
2022-11-16T23:00:40.756Z,55.97
2022-11-16T23:03:37.516Z,55.98
2022-11-16T23:06:32.421Z,55.95
2022-11-16T23:09:27.094Z,55.70
2022-11-16T23:12:39.503Z,55.83
2022-11-16T23:15:52.654Z,55.88
2022-11-16T23:18:47.650Z,55.87
2022-11-16T23:21:59.803Z,55.83
2022-11-16T23:25:12.357Z,55.78
2022-11-16T23:28:08.812Z,55.76
2022-11-16T23:31:03.566Z,55.76
2022-11-16T23:33:58.332Z,55.73
2022-11-16T23:36:52.997Z,55.80
2022-11-16T23:39:47.592Z,55.77
2022-11-16T23:43:00.192Z,55.77
2022-11-16T23:45:54.871Z,55.80
2022-11-16T23:48:49.501Z,55.79
2022-11-16T23:51:44.199Z,55.78
2022-11-16T23:54:39.220Z,55.78
2022-11-16T23:57:33.982Z,55.81
